Time;durP1;ratioP1;P1;durP2;ratioP2;P2;SDS_P1;SDS_P2;PMS_P1;PMS_P2;Temp;Humidity;BMP_temperature;BMP_pressure;BME280_temperature;BME280_humidity;BME280_pressure;Samples;Min_cycle;Max_cycle;Signal;HPM_P1;HPM_P2
2022/02/16 00:02:09;;;;;;;81.32;72.93;;;;;;;-2.35;100.00;101485.56;4991425;28;20104;-77
2022/02/16 00:04:35;;;;;;;82.28;73.85;;;;;;;-2.08;100.00;101490.66;4987638;28;20046;-78
2022/02/16 00:07:03;;;;;;;71.55;64.03;;;;;;;-2.36;100.00;101480.44;4989677;28;20506;-80
2022/02/16 00:09:29;;;;;;;71.25;61.03;;;;;;;-2.49;100.00;101477.00;4993559;28;20117;-78
2022/02/16 00:11:56;;;;;;;80.50;72.88;;;;;;;-2.27;100.00;101472.00;4993737;28;20479;-78
2022/02/16 00:14:23;;;;;;;78.97;71.30;;;;;;;-2.09;100.00;101475.13;4987190;28;20113;-78
2022/02/16 00:16:50;;;;;;;75.20;67.13;;;;;;;-2.28;100.00;101485.97;4988707;28;20058;-78
2022/02/16 00:19:18;;;;;;;84.70;76.38;;;;;;;-2.44;100.00;101483.56;4987231;28;20062;-80
2022/02/16 00:21:44;;;;;;;83.72;74.82;;;;;;;-2.44;100.00;101480.97;4995223;28;20054;-79
2022/02/16 00:24:11;;;;;;;75.50;66.45;;;;;;;-2.54;100.00;101478.16;4995366;28;20086;-80
2022/02/16 00:26:38;;;;;;;78.22;69.75;;;;;;;-2.36;100.00;101485.63;4993096;28;20050;-78
2022/02/16 00:29:05;;;;;;;79.20;71.43;;;;;;;-2.20;100.00;101493.25;4990592;28;20053;-79
2022/02/16 00:31:32;;;;;;;76.28;68.03;;;;;;;-2.18;100.00;101481.81;4988154;28;20058;-79
2022/02/16 00:33:58;;;;;;;71.25;64.15;;;;;;;-2.12;100.00;101483.16;4991282;28;20046;-79
2022/02/16 00:36:26;;;;;;;143.60;92.20;;;;;;;-2.02;100.00;101476.38;4993881;28;20054;-79
2022/02/16 00:38:53;;;;;;;101.47;78.72;;;;;;;-2.45;100.00;101483.66;4985655;28;20059;-78
2022/02/16 00:41:20;;;;;;;110.03;75.75;;;;;;;-2.16;100.00;101477.31;4987570;28;20058;-77
2022/02/16 00:43:47;;;;;;;130.40;87.95;;;;;;;-2.29;100.00;101473.06;4988657;28;20051;-78
2022/02/16 00:46:14;;;;;;;89.82;73.45;;;;;;;-2.38;100.00;101464.94;4982786;28;20419;-79
2022/02/16 00:48:41;;;;;;;257.92;112.22;;;;;;;-2.16;100.00;101466.09;4991264;28;20046;-79
2022/02/16 00:51:08;;;;;;;222.05;108.90;;;;;;;-2.19;100.00;101471.50;4988446;28;20050;-78
2022/02/16 00:53:36;;;;;;;108.22;77.80;;;;;;;-3.05;100.00;101469.41;4995277;28;20054;-77
2022/02/16 00:56:03;;;;;;;113.88;80.38;;;;;;;-2.86;100.00;101466.44;4989298;28;20051;-79
2022/02/16 00:58:30;;;;;;;165.07;90.35;;;;;;;-2.46;100.00;101471.59;4989260;28;20377;-78
2022/02/16 01:00:56;;;;;;;172.52;100.65;;;;;;;-2.49;100.00;101474.41;4987422;28;20062;-79
2022/02/16 01:03:23;;;;;;;152.60;95.25;;;;;;;-2.72;100.00;101468.13;4992873;28;20054;-78
2022/02/16 01:05:50;;;;;;;145.60;86.35;;;;;;;-2.61;100.00;101468.25;4992455;28;20117;-77
2022/02/16 01:08:22;;;;;;;114.25;77.57;;;;;;;-2.64;100.00;101464.06;4990302;28;20458;-82
2022/02/16 01:10:51;;;;;;;117.50;82.32;;;;;;;-2.81;100.00;101465.22;4987755;28;20094;-78
2022/02/16 01:13:20;;;;;;;85.85;73.50;;;;;;;-3.04;100.00;101463.28;4986335;28;20487;-77
2022/02/16 01:15:48;;;;;;;86.88;72.57;;;;;;;-2.79;100.00;101455.53;4989924;28;20046;-77
2022/02/16 01:18:15;;;;;;;81.53;73.20;;;;;;;-2.65;100.00;101462.41;4989448;28;20058;-78
2022/02/16 01:20:42;;;;;;;88.10;78.90;;;;;;;-2.41;100.00;101459.13;4991480;28;20047;-77
2022/02/16 01:23:09;;;;;;;95.25;85.35;;;;;;;-2.59;100.00;101454.22;4992236;28;20057;-77
2022/02/16 01:25:36;;;;;;;98.78;88.50;;;;;;;-2.61;100.00;101457.84;4990116;28;20063;-78
2022/02/16 01:28:04;;;;;;;87.85;78.60;;;;;;;-2.67;100.00;101458.25;4993198;28;20043;-79
2022/02/16 01:30:31;;;;;;;84.22;75.45;;;;;;;-2.81;100.00;101451.38;4988336;28;20467;-80
2022/02/16 01:32:58;;;;;;;97.68;75.55;;;;;;;-3.32;100.00;101443.44;4991867;28;20112;-78
2022/02/16 01:35:25;;;;;;;99.47;78.60;;;;;;;-2.92;100.00;101441.69;4988940;28;20057;-80
2022/02/16 01:37:51;;;;;;;98.25;78.60;;;;;;;-2.82;100.00;101439.28;4982877;28;20109;-78
2022/02/16 01:40:19;;;;;;;107.65;80.80;;;;;;;-3.16;100.00;101438.09;4988409;28;20081;-80
2022/02/16 01:42:46;;;;;;;94.90;70.15;;;;;;;-3.01;100.00;101434.47;4983264;28;20046;-77
2022/02/16 01:45:16;;;;;;;78.20;67.65;;;;;;;-2.90;100.00;101433.78;4981145;28;20157;-77
2022/02/16 01:47:43;;;;;;;84.00;73.50;;;;;;;-2.94;100.00;101433.13;4987045;28;20047;-77
2022/02/16 01:50:12;;;;;;;87.90;73.32;;;;;;;-3.01;100.00;101424.91;4989488;28;20120;-77
2022/02/16 01:52:42;;;;;;;87.95;73.45;;;;;;;-2.98;100.00;101428.25;4985777;28;20138;-77
2022/02/16 01:55:11;;;;;;;91.68;80.53;;;;;;;-2.85;100.00;101431.69;4986278;28;20078;-78
2022/02/16 01:57:39;;;;;;;87.80;75.32;;;;;;;-3.04;100.00;101427.72;4991600;28;20046;-80
2022/02/16 02:00:08;;;;;;;96.47;67.82;;;;;;;-3.43;100.00;101425.94;4998127;28;20046;-77
2022/02/16 02:02:36;;;;;;;80.68;66.60;;;;;;;-3.73;100.00;101423.50;4991683;28;20047;-80
2022/02/16 02:05:03;;;;;;;89.05;73.97;;;;;;;-3.65;100.00;101418.69;4992424;28;20066;-79
2022/02/16 02:07:31;;;;;;;94.00;83.22;;;;;;;-3.22;100.00;101416.75;4991219;28;20046;-77
2022/02/16 02:09:58;;;;;;;119.10;88.38;;;;;;;-2.85;100.00;101414.31;4992484;28;20088;-77
2022/02/16 02:12:25;;;;;;;99.95;84.63;;;;;;;-3.07;100.00;101404.53;4992399;28;20113;-78
2022/02/16 02:14:53;;;;;;;103.93;82.65;;;;;;;-3.08;100.00;101400.25;4980160;28;20484;-77
2022/02/16 02:17:20;;;;;;;91.55;78.80;;;;;;;-3.50;100.00;101401.28;4990919;28;20050;-80
2022/02/16 02:19:48;;;;;;;90.15;70.30;;;;;;;-3.24;100.00;101397.84;4982144;28;20487;-79
2022/02/16 02:22:16;;;;;;;90.53;70.63;;;;;;;-3.12;100.00;101393.59;4979749;28;20413;-78
2022/02/16 02:24:42;;;;;;;111.25;82.95;;;;;;;-3.34;100.00;101386.38;4984088;28;20049;-79
2022/02/16 02:27:09;;;;;;;110.53;86.22;;;;;;;-3.30;100.00;101377.47;4983844;28;20182;-79
2022/02/16 02:29:39;;;;;;;110.30;91.57;;;;;;;-3.03;100.00;101376.56;4992145;28;20108;-78
2022/02/16 02:32:06;;;;;;;105.45;84.93;;;;;;;-3.04;100.00;101391.31;4985422;28;20051;-81
2022/02/16 02:34:33;;;;;;;105.53;83.85;;;;;;;-3.24;100.00;101382.25;4988665;28;20116;-81
2022/02/16 02:36:59;;;;;;;102.32;82.05;;;;;;;-3.25;100.00;101384.94;4984128;28;20554;-78
2022/02/16 02:39:27;;;;;;;104.68;85.78;;;;;;;-3.03;100.00;101389.56;4983795;28;20108;-77
2022/02/16 02:41:54;;;;;;;85.97;76.20;;;;;;;-3.02;100.00;101399.03;4982511;28;20072;-78
2022/02/16 02:44:21;;;;;;;84.75;72.40;;;;;;;-2.88;100.00;101400.69;4996944;28;20113;-80
2022/02/16 02:46:48;;;;;;;72.80;65.03;;;;;;;-2.80;100.00;101401.03;4989423;28;20117;-80
2022/02/16 02:49:14;;;;;;;83.70;74.63;;;;;;;-2.85;100.00;101411.72;4992204;28;20058;-79
2022/02/16 02:51:41;;;;;;;82.15;73.28;;;;;;;-2.90;100.00;101400.00;4981534;28;20054;-80
2022/02/16 02:54:08;;;;;;;69.50;62.25;;;;;;;-2.80;100.00;101401.03;4988215;28;20057;-80
2022/02/16 02:56:36;;;;;;;90.43;78.88;;;;;;;-2.66;100.00;101405.28;4989953;28;20059;-78
2022/02/16 02:59:03;;;;;;;102.05;80.85;;;;;;;-2.64;100.00;101406.03;4987406;28;20128;-77
2022/02/16 03:01:36;;;;;;;98.68;80.47;;;;;;;-2.81;100.00;101400.22;5112305;23;20061;-78
2022/02/16 03:04:03;;;;;;;90.45;72.65;;;;;;;-3.05;100.00;101391.44;5025193;28;20112;-78
2022/02/16 03:06:31;;;;;;;100.05;84.18;;;;;;;-3.08;100.00;101392.47;5026238;28;20046;-77
2022/02/16 03:08:57;;;;;;;97.03;86.47;;;;;;;-2.74;100.00;101397.19;5027265;28;20045;-80
2022/02/16 03:11:24;;;;;;;103.13;91.10;;;;;;;-2.70;100.00;101391.66;5029442;28;20054;-79
2022/02/16 03:13:52;;;;;;;86.18;77.22;;;;;;;-2.59;100.00;101398.75;5027789;28;20474;-78
2022/02/16 03:16:19;;;;;;;76.72;68.57;;;;;;;-2.80;100.00;101391.47;5031161;28;20058;-78
2022/02/16 03:18:46;;;;;;;91.97;82.53;;;;;;;-2.78;100.00;101389.59;5031932;28;20111;-78
2022/02/16 03:21:12;;;;;;;82.22;73.90;;;;;;;-2.86;100.00;101396.25;5027998;28;20490;-80
2022/02/16 03:23:41;;;;;;;87.78;76.75;;;;;;;-2.90;100.00;101393.03;5026895;28;20508;-77
2022/02/16 03:26:10;;;;;;;86.13;75.20;;;;;;;-3.27;100.00;101394.59;5033605;28;20057;-77
2022/02/16 03:28:37;;;;;;;178.63;112.15;;;;;;;-3.40;100.00;101391.97;5029359;28;20077;-78
2022/02/16 03:31:05;;;;;;;186.20;106.70;;;;;;;-3.50;100.00;101398.69;5024856;28;20130;-79
2022/02/16 03:33:31;;;;;;;195.50;109.55;;;;;;;-3.46;100.00;101397.56;5030425;28;20049;-77
2022/02/16 03:35:58;;;;;;;192.70;110.13;;;;;;;-3.53;100.00;101398.88;5028617;28;20460;-78
2022/02/16 03:38:25;;;;;;;177.63;102.80;;;;;;;-3.35;100.00;101402.91;5030191;28;20058;-80
2022/02/16 03:40:53;;;;;;;175.57;104.28;;;;;;;-3.41;100.00;101402.47;5032136;28;20054;-79
2022/02/16 03:43:19;;;;;;;179.15;111.45;;;;;;;-3.01;100.00;101396.31;5029379;28;20064;-77
2022/02/16 03:45:46;;;;;;;171.35;106.53;;;;;;;-3.58;100.00;101406.13;5021698;28;20042;-80
2022/02/16 03:48:14;;;;;;;169.95;99.15;;;;;;;-3.19;100.00;101399.31;5028639;28;20054;-78
2022/02/16 03:50:41;;;;;;;156.85;98.65;;;;;;;-3.19;100.00;101394.94;5028838;28;20127;-77
2022/02/16 03:53:08;;;;;;;170.65;106.15;;;;;;;-3.33;100.00;101397.59;5028136;28;20057;-78
2022/02/16 03:55:37;;;;;;;176.13;113.88;;;;;;;-3.42;100.00;101396.41;5029355;28;20459;-77
2022/02/16 03:58:03;;;;;;;166.10;104.75;;;;;;;-3.23;100.00;101404.69;5024245;28;20057;-78
2022/02/16 04:00:32;;;;;;;144.35;94.97;;;;;;;-2.87;100.00;101392.00;5020734;28;20046;-78
2022/02/16 04:02:59;;;;;;;129.50;85.18;;;;;;;-2.78;100.00;101393.97;5030311;28;20057;-80
2022/02/16 04:05:27;;;;;;;138.40;88.53;;;;;;;-3.05;100.00;101392.28;5029430;28;20552;-78
2022/02/16 04:07:54;;;;;;;108.38;79.82;;;;;;;-3.21;100.00;101391.59;5028922;28;20045;-80
2022/02/16 04:10:20;;;;;;;99.03;67.95;;;;;;;-3.20;100.00;101393.28;5027065;28;20049;-80
2022/02/16 04:12:47;;;;;;;81.95;64.00;;;;;;;-3.31;100.00;101388.75;5031890;28;20060;-78
2022/02/16 04:15:20;;;;;;;65.93;59.17;;;;;;;-3.15;100.00;101390.38;5022271;28;20131;-79
2022/02/16 04:17:47;;;;;;;82.38;67.10;;;;;;;-3.17;100.00;101387.88;5027878;28;20049;-79
2022/02/16 04:20:14;;;;;;;97.45;75.90;;;;;;;-3.07;100.00;101396.72;5027028;28;20085;-78
2022/02/16 04:22:43;;;;;;;146.90;96.47;;;;;;;-3.22;100.00;101395.13;5029364;28;20053;-78
2022/02/16 04:25:10;;;;;;;180.63;116.43;;;;;;;-3.19;100.00;101387.13;5031725;28;20049;-77
2022/02/16 04:27:37;;;;;;;171.05;111.25;;;;;;;-3.25;100.00;101393.56;5027493;28;20045;-80
2022/02/16 04:30:05;;;;;;;161.73;115.03;;;;;;;-3.09;100.00;101393.38;5027501;28;20049;-80
2022/02/16 04:32:32;;;;;;;127.10;91.90;;;;;;;-2.93;100.00;101382.81;5030447;28;20049;-78
2022/02/16 04:34:59;;;;;;;132.57;93.70;;;;;;;-3.08;100.00;101386.44;5033513;28;20220;-80
2022/02/16 04:37:26;;;;;;;115.82;89.32;;;;;;;-2.90;100.00;101394.78;5026740;28;20054;-77
2022/02/16 04:39:54;;;;;;;124.05;93.57;;;;;;;-3.05;100.00;101386.25;5027511;28;20076;-78
2022/02/16 04:42:23;;;;;;;94.88;77.88;;;;;;;-2.94;100.00;101385.50;5025876;28;20065;-79
2022/02/16 04:44:49;;;;;;;103.05;80.68;;;;;;;-2.82;100.00;101385.53;5034637;28;20064;-80
2022/02/16 04:47:16;;;;;;;84.82;70.10;;;;;;;-3.17;100.00;101381.84;5036121;28;20462;-80
2022/02/16 04:49:43;;;;;;;99.28;74.25;;;;;;;-3.15;100.00;101374.78;5034455;28;20053;-78
2022/02/16 04:52:10;;;;;;;90.68;74.75;;;;;;;-3.06;100.00;101379.34;5029670;28;20053;-79
2022/02/16 04:54:37;;;;;;;92.25;75.15;;;;;;;-3.02;100.00;101380.84;5019692;28;20064;-77
2022/02/16 04:57:05;;;;;;;72.13;60.63;;;;;;;-3.44;100.00;101368.91;5029348;28;20050;-77
2022/02/16 04:59:32;;;;;;;89.90;72.75;;;;;;;-3.30;100.00;101366.22;5030357;28;20045;-79
2022/02/16 05:01:59;;;;;;;79.30;70.13;;;;;;;-3.33;100.00;101366.41;5029068;28;20463;-78
2022/02/16 05:04:26;;;;;;;72.43;61.25;;;;;;;-3.33;100.00;101375.06;5033011;28;20472;-77
2022/02/16 05:06:53;;;;;;;68.10;58.35;;;;;;;-3.30;100.00;101377.47;5028120;28;20088;-79
2022/02/16 05:09:22;;;;;;;64.90;58.25;;;;;;;-3.26;100.00;101372.91;5031845;28;20493;-77
2022/02/16 05:11:49;;;;;;;85.03;69.22;;;;;;;-3.39;100.00;101362.44;5019671;28;20050;-79
2022/02/16 05:14:17;;;;;;;82.93;67.15;;;;;;;-3.39;100.00;101367.63;5025822;28;20053;-77
2022/02/16 05:16:43;;;;;;;68.18;58.13;;;;;;;-3.30;100.00;101358.41;5030360;28;20107;-80
2022/02/16 05:19:13;;;;;;;72.10;61.28;;;;;;;-3.10;100.00;101357.94;5030848;28;20116;-77
2022/02/16 05:21:40;;;;;;;81.75;63.28;;;;;;;-3.09;100.00;101356.16;5033166;28;20049;-77
2022/02/16 05:24:10;;;;;;;84.00;68.55;;;;;;;-3.29;100.00;101360.09;5026607;28;20120;-79
2022/02/16 05:26:38;;;;;;;73.43;65.32;;;;;;;-3.07;100.00;101359.50;5026286;28;20493;-77
2022/02/16 05:29:07;;;;;;;69.22;59.90;;;;;;;-2.53;100.00;101356.72;5024663;28;20474;-78
2022/02/16 05:31:35;;;;;;;68.38;61.00;;;;;;;-1.83;100.00;101353.53;5029956;28;20124;-80
2022/02/16 05:34:03;;;;;;;64.30;57.75;;;;;;;-1.95;100.00;101363.06;5024706;28;20111;-77
2022/02/16 05:36:30;;;;;;;66.80;60.30;;;;;;;-1.76;100.00;101369.56;5032772;28;20053;-80
2022/02/16 05:38:57;;;;;;;65.15;58.85;;;;;;;-1.64;100.00;101379.09;5027993;28;20107;-78
2022/02/16 05:41:24;;;;;;;61.50;55.13;;;;;;;-1.43;100.00;101376.69;5026375;28;20049;-78
2022/02/16 05:43:51;;;;;;;65.35;58.53;;;;;;;-1.12;100.00;101390.94;5036322;28;20195;-80
2022/02/16 05:46:18;;;;;;;65.78;58.90;;;;;;;-1.08;100.00;101389.75;5032341;28;20042;-79
2022/02/16 05:48:46;;;;;;;61.67;54.97;;;;;;;-1.09;100.00;101393.31;5029966;28;20456;-78
2022/02/16 05:51:13;;;;;;;60.45;54.58;;;;;;;-0.89;100.00;101397.03;5032021;28;20506;-78
2022/02/16 05:53:40;;;;;;;63.33;57.03;;;;;;;-1.13;100.00;101409.28;5033817;28;20079;-78
2022/02/16 05:56:06;;;;;;;60.60;54.88;;;;;;;-1.30;100.00;101400.94;5033444;28;20403;-80
2022/02/16 05:58:33;;;;;;;90.30;81.55;;;;;;;-1.52;100.00;101400.81;5031683;28;20531;-77
2022/02/16 06:01:01;;;;;;;90.20;81.18;;;;;;;-1.48;100.00;101397.91;5034494;28;20072;-77
2022/02/16 06:03:28;;;;;;;87.57;77.90;;;;;;;-1.28;100.00;101408.63;5031010;28;20058;-80
2022/02/16 06:05:56;;;;;;;94.95;84.97;;;;;;;-1.25;100.00;101419.66;5036881;28;20045;-78
2022/02/16 06:08:23;;;;;;;88.03;78.38;;;;;;;-1.06;100.00;101428.75;5031360;28;20099;-77
2022/02/16 06:10:49;;;;;;;84.43;75.75;;;;;;;-0.52;100.00;101434.22;5032753;28;20049;-78
2022/02/16 06:13:16;;;;;;;85.45;76.82;;;;;;;-0.06;100.00;101438.53;5030528;28;20054;-79
2022/02/16 06:15:43;;;;;;;89.78;81.45;;;;;;;0.32;100.00;101428.63;5032199;28;20045;-78
2022/02/16 06:18:10;;;;;;;97.00;87.53;;;;;;;0.01;100.00;101430.22;5029046;28;20485;-79
2022/02/16 06:20:36;;;;;;;99.32;89.35;;;;;;;-0.06;100.00;101427.25;5031940;28;20452;-80
2022/02/16 06:23:06;;;;;;;101.95;91.35;;;;;;;0.32;100.00;101416.41;5032753;28;20045;-78
2022/02/16 06:25:32;;;;;;;117.57;105.32;;;;;;;0.58;100.00;101416.94;5027194;28;20534;-80
2022/02/16 06:28:03;;;;;;;109.60;97.93;;;;;;;2.10;100.00;101419.09;5022462;28;20116;-79
2022/02/16 06:30:30;;;;;;;124.93;112.10;;;;;;;3.77;100.00;101412.66;5028625;28;20453;-80
2022/02/16 06:32:58;;;;;;;127.03;110.63;;;;;;;2.02;100.00;101411.88;5030670;28;20110;-78
2022/02/16 06:35:24;;;;;;;106.03;95.05;;;;;;;1.94;100.00;101402.09;5029265;28;20060;-80
2022/02/16 06:37:51;;;;;;;104.38;94.20;;;;;;;2.24;100.00;101400.34;5027794;28;20111;-80
2022/02/16 06:40:19;;;;;;;109.00;99.32;;;;;;;2.88;100.00;101397.25;5040172;28;20049;-78
2022/02/16 06:42:46;;;;;;;115.43;105.07;;;;;;;3.29;100.00;101404.91;5033081;28;20107;-79
2022/02/16 06:45:13;;;;;;;113.90;102.38;;;;;;;2.97;100.00;101393.78;5040699;28;20045;-80
2022/02/16 06:47:41;;;;;;;96.85;87.55;;;;;;;3.65;100.00;101390.16;5038245;28;20050;-78
2022/02/16 06:50:09;;;;;;;99.47;88.78;;;;;;;3.88;100.00;101390.63;5032720;28;20128;-79
2022/02/16 06:52:36;;;;;;;104.07;92.93;;;;;;;4.53;100.00;101393.13;5029786;28;20050;-79
2022/02/16 06:55:03;;;;;;;119.57;104.43;;;;;;;4.70;100.00;101387.03;5032446;28;20045;-81
2022/02/16 06:57:32;;;;;;;105.82;94.93;;;;;;;4.66;100.00;101385.72;5035918;28;20453;-79
2022/02/16 06:59:58;;;;;;;88.72;81.25;;;;;;;4.94;100.00;101388.25;5040287;28;20124;-79
2022/02/16 07:02:26;;;;;;;89.65;82.20;;;;;;;4.77;100.00;101384.63;5032574;28;20405;-78
2022/02/16 07:04:55;;;;;;;87.07;79.60;;;;;;;5.09;100.00;101384.06;5042787;28;20029;-80
2022/02/16 07:07:22;;;;;;;91.10;82.80;;;;;;;5.40;100.00;101386.25;5027780;28;20049;-80
2022/02/16 07:09:49;;;;;;;89.25;81.45;;;;;;;5.70;100.00;101388.38;5038896;28;20477;-80
2022/02/16 07:12:16;;;;;;;84.93;77.60;;;;;;;5.54;100.00;101384.81;5034161;28;20462;-79
2022/02/16 07:14:44;;;;;;;85.82;78.68;;;;;;;6.06;100.00;101382.16;5040966;28;20042;-80
2022/02/16 07:17:11;;;;;;;81.82;75.18;;;;;;;6.19;100.00;101371.94;5039254;28;20049;-79
2022/02/16 07:19:38;;;;;;;83.53;76.80;;;;;;;6.62;100.00;101377.97;5032224;28;20049;-79
2022/02/16 07:22:05;;;;;;;89.28;81.88;;;;;;;7.19;100.00;101377.13;5042176;28;20068;-79
2022/02/16 07:24:32;;;;;;;86.90;79.55;;;;;;;6.69;100.00;101375.47;5034001;28;20444;-80
2022/02/16 07:26:59;;;;;;;82.18;75.57;;;;;;;7.44;100.00;101365.50;5038920;28;20069;-79
2022/02/16 07:29:27;;;;;;;86.65;79.65;;;;;;;8.42;100.00;101365.09;5041212;28;20049;-79
2022/02/16 07:31:57;;;;;;;94.28;86.50;;;;;;;8.33;100.00;101354.69;5041240;28;20049;-79
2022/02/16 07:34:26;;;;;;;81.10;74.70;;;;;;;8.27;100.00;101346.44;5036907;28;20107;-81
2022/02/16 07:36:55;;;;;;;86.82;79.32;;;;;;;9.20;100.00;101344.56;5038333;28;20052;-79
2022/02/16 07:39:27;;;;;;;88.30;79.95;;;;;;;9.30;100.00;101344.31;5043784;28;20076;-79
2022/02/16 07:41:55;;;;;;;80.68;73.72;;;;;;;9.20;100.00;101354.31;5035084;28;20085;-80
2022/02/16 07:44:22;;;;;;;82.40;75.63;;;;;;;9.15;100.00;101360.19;5038523;28;20077;-81
2022/02/16 07:46:48;;;;;;;85.07;77.90;;;;;;;9.35;100.00;101353.34;5038767;28;20129;-79
2022/02/16 07:49:17;;;;;;;80.38;74.38;;;;;;;9.24;100.00;101351.16;5038552;28;20045;-80
2022/02/16 07:51:43;;;;;;;82.53;76.35;;;;;;;9.81;100.00;101353.16;5041081;28;20071;-79
2022/02/16 07:54:10;;;;;;;87.50;80.43;;;;;;;10.03;100.00;101354.00;5042473;28;20053;-80
2022/02/16 07:56:38;;;;;;;132.63;109.95;;;;;;;10.63;100.00;101357.31;5041272;28;20042;-81
2022/02/16 07:59:05;;;;;;;96.72;87.80;;;;;;;11.53;100.00;101350.41;5044902;28;20658;-81
2022/02/16 08:01:38;;;;;;;80.15;74.38;;;;;;;11.59;100.00;101349.63;5045006;28;20037;-81
2022/02/16 08:04:18;;;;;;;;;;;;;;;11.45;100.00;101355.88;5045381;28;20119;-80
2022/02/16 08:06:49;;;;;;;80.03;73.57;;;;;;;11.20;100.00;101355.53;5044075;28;19921;-79
2022/02/16 08:09:18;;;;;;;88.47;81.68;;;;;;;12.36;99.77;101345.00;5047303;28;20050;-79
2022/02/16 08:11:46;;;;;;;88.88;81.68;;;;;;;12.64;96.31;101339.47;5047525;28;20049;-78
2022/02/16 08:14:13;;;;;;;79.05;73.00;;;;;;;12.70;95.26;101345.84;5046409;28;20764;-79
2022/02/16 08:16:41;;;;;;;85.43;78.45;;;;;;;13.07;89.24;101333.72;5048053;28;20462;-79
2022/02/16 08:19:10;;;;;;;80.22;74.00;;;;;;;13.54;85.78;101339.00;5045961;28;20056;-79
2022/02/16 08:21:37;;;;;;;81.53;75.22;;;;;;;13.32;83.46;101336.59;5046727;28;20041;-79
2022/02/16 08:24:07;;;;;;;85.63;79.03;;;;;;;13.65;83.68;101333.84;5042727;28;20547;-80
2022/02/16 08:26:34;;;;;;;87.45;80.90;;;;;;;14.55;79.52;101325.72;5047981;28;20413;-80
2022/02/16 08:29:01;;;;;;;158.95;122.43;;;;;;;15.44;76.43;101317.50;5044735;28;20045;-81
2022/02/16 08:31:30;;;;;;;84.95;78.28;;;;;;;14.40;74.86;101322.53;5047019;28;20049;-79
2022/02/16 08:33:58;;;;;;;84.53;78.28;;;;;;;15.25;74.60;101327.38;5039437;28;20063;-80
2022/02/16 08:36:24;;;;;;;83.93;77.82;;;;;;;16.22;72.05;101314.88;5044402;28;20053;-80
2022/02/16 08:38:51;;;;;;;80.43;74.05;;;;;;;16.10;68.63;101314.03;5046189;28;20444;-79
2022/02/16 08:41:19;;;;;;;87.20;80.18;;;;;;;16.53;68.99;101310.28;5046823;28;20057;-78
2022/02/16 08:43:48;;;;;;;97.20;87.78;;;;;;;16.37;67.23;101305.56;5039911;28;20104;-79
2022/02/16 08:46:15;;;;;;;85.32;78.38;;;;;;;16.43;67.13;101308.16;5048428;28;20033;-78
2022/02/16 08:48:42;;;;;;;83.35;76.90;;;;;;;16.61;64.68;101320.66;5045739;28;20049;-79
2022/02/16 08:51:10;;;;;;;84.07;77.32;;;;;;;17.00;66.23;101321.03;5045431;28;20067;-79
2022/02/16 08:53:37;;;;;;;89.68;82.60;;;;;;;13.41;74.23;101324.66;5042397;28;20037;-80
2022/02/16 08:56:06;;;;;;;79.15;73.15;;;;;;;16.43;68.36;101326.94;5039024;28;20079;-79
2022/02/16 08:58:35;;;;;;;76.85;70.60;;;;;;;17.04;64.21;101316.06;5037194;28;20046;-80
2022/02/16 09:01:08;;;;;;;77.38;70.85;;;;;;;17.04;66.66;101313.38;5032689;28;20045;-79
2022/02/16 09:03:35;;;;;;;83.07;76.55;;;;;;;18.36;61.53;101309.78;5045343;28;20058;-78
2022/02/16 09:06:02;;;;;;;82.88;76.20;;;;;;;17.93;60.96;101310.38;5031347;28;20132;-79
2022/02/16 09:08:29;;;;;;;82.88;76.57;;;;;;;18.11;59.65;101310.19;5042537;28;20053;-80
2022/02/16 09:10:56;;;;;;;82.32;75.88;;;;;;;18.80;59.11;101309.19;5045694;28;20049;-79
2022/02/16 09:13:22;;;;;;;82.80;76.22;;;;;;;19.03;57.47;101306.28;5037010;28;20115;-79
2022/02/16 09:15:51;;;;;;;86.22;79.05;;;;;;;17.94;57.95;101299.38;5050097;28;20053;-79
2022/02/16 09:18:17;;;;;;;87.10;80.68;;;;;;;18.19;58.43;101301.72;5047906;28;20094;-79
2022/02/16 09:20:46;;;;;;;86.07;79.28;;;;;;;17.39;59.90;101297.19;5043053;28;20475;-80
2022/02/16 09:23:17;;;;;;;87.93;80.88;;;;;;;18.56;59.49;101298.56;5035329;28;20053;-78
2022/02/16 09:25:44;;;;;;;88.03;81.30;;;;;;;18.87;56.75;101294.47;5039388;28;20060;-79
2022/02/16 09:28:11;;;;;;;86.13;79.20;;;;;;;18.71;56.46;101289.91;5049010;28;20490;-79
2022/02/16 09:30:38;;;;;;;84.70;77.72;;;;;;;19.36;53.33;101291.91;5046348;28;20038;-80
2022/02/16 09:33:06;;;;;;;81.93;75.75;;;;;;;19.10;55.83;101285.41;5046920;28;20326;-79
2022/02/16 09:35:38;;;;;;;87.00;80.72;;;;;;;19.37;54.96;101277.41;5048960;28;20065;-81
2022/02/16 09:38:05;;;;;;;86.33;80.30;;;;;;;19.92;54.79;101272.09;5044560;28;20482;-79
2022/02/16 09:40:32;;;;;;;90.00;83.30;;;;;;;20.25;50.35;101261.06;5046258;28;20061;-79
2022/02/16 09:43:03;;;;;;;92.22;85.18;;;;;;;19.97;52.01;101270.25;5041410;28;20121;-79
2022/02/16 09:45:31;;;;;;;89.57;82.97;;;;;;;20.28;50.49;101259.75;5047952;28;20108;-80
2022/02/16 09:48:00;;;;;;;86.00;79.60;;;;;;;20.49;49.02;101256.13;5042232;28;20080;-79
2022/02/16 09:50:28;;;;;;;92.25;85.53;;;;;;;19.92;47.31;101245.13;5044545;28;20049;-80
2022/02/16 09:52:57;;;;;;;89.40;82.80;;;;;;;17.87;45.12;101246.84;5041901;28;20044;-81
2022/02/16 09:55:25;;;;;;;85.80;79.30;;;;;;;16.71;49.73;101245.81;5044293;28;20049;-80
2022/02/16 09:57:53;;;;;;;84.25;77.50;;;;;;;18.02;50.90;101245.25;5045688;28;20057;-81
2022/02/16 10:00:19;;;;;;;79.93;74.32;;;;;;;19.58;48.07;101239.91;5043338;28;20084;-80
2022/02/16 10:02:47;;;;;;;87.10;80.75;;;;;;;20.05;45.62;101229.34;5039999;28;20057;-81
2022/02/16 10:05:16;;;;;;;86.25;79.55;;;;;;;21.83;43.56;101217.03;5031174;28;20046;-80
2022/02/16 10:07:49;;;;;;;89.18;82.07;;;;;;;21.79;43.69;101219.47;5031833;28;20375;-80
2022/02/16 10:10:22;;;;;;;89.82;83.03;;;;;;;20.34;42.00;101210.97;5042722;28;20053;-78
2022/02/16 10:12:51;;;;;;;83.82;77.20;;;;;;;19.44;44.71;101209.84;5048119;28;20058;-79
2022/02/16 10:15:21;;;;;;;81.57;75.18;;;;;;;18.25;47.35;101203.97;5050326;28;20045;-78
2022/02/16 10:17:49;;;;;;;84.05;77.85;;;;;;;17.65;49.71;101204.53;5040527;28;20112;-79
2022/02/16 10:20:23;;;;;;;89.00;82.10;;;;;;;18.99;47.24;101206.38;5034893;28;20454;-81
2022/02/16 10:22:55;;;;;;;96.80;89.30;;;;;;;18.36;51.72;101202.22;5046252;28;20057;-80
2022/02/16 10:25:24;;;;;;;96.47;89.28;;;;;;;21.68;46.25;101197.00;5045969;28;20076;-79
2022/02/16 10:28:09;;;;;;;94.15;86.97;;;;;;;19.86;45.26;101187.66;5048407;28;20093;-80
2022/02/16 10:30:38;;;;;;;95.75;88.25;;;;;;;19.05;50.27;101183.03;5044280;28;20037;-80
2022/02/16 10:33:20;;;;;;;98.35;90.72;;;;;;;18.57;51.20;101181.03;5044855;28;20472;-78
2022/02/16 10:35:47;;;;;;;85.72;78.82;;;;;;;18.95;53.45;101177.53;5042093;28;20175;-79
2022/02/16 10:38:23;;;;;;;94.47;86.63;;;;;;;19.38;48.08;101171.28;5042024;28;20053;-79
2022/02/16 10:41:05;;;;;;;88.45;81.03;;;;;;;21.27;47.73;101160.94;5039180;28;20057;-80
2022/02/16 10:43:33;;;;;;;88.53;81.40;;;;;;;18.84;43.09;101162.31;5037710;28;20057;-79
2022/02/16 10:46:16;;;;;;;83.57;76.88;;;;;;;19.90;49.74;101151.84;5047564;28;20041;-81
2022/02/16 10:49:08;;;;;;;90.97;82.88;;;;;;;19.37;48.82;101141.91;5045031;28;20481;-80
2022/02/16 10:51:34;;;;;;;89.47;82.17;;;;;;;17.27;51.58;101146.09;5044741;28;20041;-80
2022/02/16 10:54:13;;;;;;;91.68;83.95;;;;;;;19.10;50.44;101140.03;5045310;28;20045;-80
2022/02/16 10:56:47;;;;;;;87.35;79.70;;;;;;;19.26;49.01;101138.31;5047826;28;20042;-80
2022/02/16 10:59:15;;;;;;;83.75;76.50;;;;;;;20.92;45.94;101140.06;5045521;28;20049;-80
2022/02/16 11:01:42;;;;;;;81.00;74.35;;;;;;;21.88;46.13;101134.03;5042210;28;20045;-79
2022/02/16 11:04:19;;;;;;;84.15;77.75;;;;;;;22.65;43.46;101136.59;5043862;28;20061;-80
2022/02/16 11:06:53;;;;;;;93.55;85.85;;;;;;;22.05;39.38;101122.91;5036213;28;20103;-80